createdAt,value
2022-10-03T00:00:25.608Z,19.33
2022-10-03T00:03:13.559Z,19.49
2022-10-03T00:05:52.095Z,19.60
2022-10-03T00:08:50.816Z,19.64
2022-10-03T00:11:36.897Z,19.75
2022-10-03T00:14:12.615Z,19.83
2022-10-03T00:16:48.123Z,19.86
2022-10-03T00:19:42.670Z,19.89
2022-10-03T00:22:29.668Z,20.00
2022-10-03T00:25:24.940Z,19.97
2022-10-03T00:28:16.285Z,19.98
2022-10-03T00:31:01.206Z,20.02
2022-10-03T00:33:59.626Z,20.04
2022-10-03T00:36:34.920Z,20.07
2022-10-03T00:39:19.915Z,20.07
2022-10-03T00:42:01.579Z,20.06
2022-10-03T00:44:37.467Z,20.03
2022-10-03T00:47:24.542Z,20.03
2022-10-03T00:50:06.215Z,19.99
2022-10-03T00:52:59.054Z,19.97
2022-10-03T00:56:06.634Z,19.91
2022-10-03T00:58:33.010Z,19.86
2022-10-03T01:01:28.421Z,19.85
2022-10-03T01:04:00.739Z,19.84
2022-10-03T01:06:59.145Z,19.63
2022-10-03T01:10:09.926Z,19.78
2022-10-03T01:13:05.977Z,19.75
2022-10-03T01:15:54.119Z,19.46
2022-10-03T01:19:10.107Z,19.43
2022-10-03T01:21:51.338Z,19.47
2022-10-03T01:24:58.694Z,19.51
2022-10-03T01:27:50.755Z,19.53
2022-10-03T01:30:17.428Z,19.56
2022-10-03T01:32:49.581Z,19.45
2022-10-03T01:35:56.722Z,19.41
2022-10-03T01:38:51.231Z,19.21
2022-10-03T01:41:42.853Z,19.26
2022-10-03T01:44:09.419Z,19.35
2022-10-03T01:46:42.209Z,19.32
2022-10-03T01:49:33.670Z,19.27
2022-10-03T01:52:06.403Z,19.30
2022-10-03T01:54:51.204Z,19.34
2022-10-03T01:57:44.219Z,19.32
2022-10-03T02:00:18.065Z,19.37
2022-10-03T02:03:17.036Z,19.34
2022-10-03T02:06:10.963Z,19.34
2022-10-03T02:08:40.288Z,19.32
2022-10-03T02:11:09.740Z,19.31
2022-10-03T02:14:07.217Z,19.32
2022-10-03T02:16:43.733Z,19.27
2022-10-03T02:19:22.652Z,19.32
2022-10-03T02:21:52.957Z,19.32
2022-10-03T02:24:49.095Z,19.31
2022-10-03T02:28:07.601Z,19.25
2022-10-03T02:30:52.605Z,19.28
2022-10-03T02:33:34.131Z,19.28
2022-10-03T02:36:32.778Z,19.26
2022-10-03T02:39:05.272Z,19.12
2022-10-03T02:41:43.744Z,19.13
2022-10-03T02:44:45.529Z,19.11
2022-10-03T02:47:26.947Z,19.03
2022-10-03T02:50:18.288Z,18.98
2022-10-03T02:53:06.039Z,19.04
2022-10-03T02:56:15.207Z,19.03
2022-10-03T02:59:29.138Z,18.97
2022-10-03T03:02:13.571Z,18.82
2022-10-03T03:05:10.397Z,18.74
2022-10-03T03:08:10.837Z,18.53
2022-10-03T03:11:11.376Z,18.67
2022-10-03T03:13:59.089Z,18.74
2022-10-03T03:16:31.434Z,18.75
2022-10-03T03:19:19.142Z,18.74
2022-10-03T03:21:58.912Z,18.73
2022-10-03T03:24:55.537Z,18.73
2022-10-03T03:27:40.330Z,18.70
2022-10-03T03:30:18.800Z,18.79
2022-10-03T03:33:05.849Z,18.80
2022-10-03T03:35:41.344Z,18.75
2022-10-03T03:38:38.117Z,18.74
2022-10-03T03:41:26.918Z,18.67
2022-10-03T03:44:11.619Z,18.66
2022-10-03T03:47:24.653Z,18.47
2022-10-03T03:50:12.109Z,18.45
2022-10-03T03:52:56.635Z,18.45
2022-10-03T03:56:00.905Z,18.45
2022-10-03T03:58:36.114Z,18.49
2022-10-03T04:01:31.754Z,18.19
2022-10-03T04:04:18.512Z,17.98
2022-10-03T04:06:44.923Z,17.81
2022-10-03T04:09:39.226Z,17.95
2022-10-03T04:12:36.181Z,17.92
2022-10-03T04:15:45.404Z,17.97
2022-10-03T04:18:53.793Z,18.08
2022-10-03T04:21:35.711Z,18.12
2022-10-03T04:24:28.916Z,18.11
2022-10-03T04:27:19.394Z,18.19
2022-10-03T04:30:10.760Z,18.09
2022-10-03T04:32:59.386Z,18.20
2022-10-03T04:35:37.688Z,18.25
2022-10-03T04:38:49.416Z,18.25
2022-10-03T04:41:49.600Z,18.19
2022-10-03T04:44:40.990Z,18.18
2022-10-03T04:47:33.450Z,18.23
2022-10-03T04:50:12.045Z,18.24
2022-10-03T04:52:48.196Z,18.20
2022-10-03T04:55:39.355Z,18.21
2022-10-03T04:58:24.245Z,18.20
2022-10-03T05:01:15.942Z,18.18
2022-10-03T05:04:14.456Z,18.13
2022-10-03T05:07:17.280Z,18.11
2022-10-03T05:10:04.485Z,18.06
2022-10-03T05:12:51.182Z,18.03
2022-10-03T05:15:29.587Z,18.00
2022-10-03T05:18:12.857Z,17.94
2022-10-03T05:20:54.002Z,17.91
2022-10-03T05:23:34.571Z,17.88
2022-10-03T05:26:39.917Z,17.87
2022-10-03T05:29:32.047Z,17.88
2022-10-03T05:32:06.215Z,17.88
2022-10-03T05:34:39.550Z,17.85
2022-10-03T05:37:41.057Z,17.85
2022-10-03T05:40:07.474Z,17.82
2022-10-03T05:42:49.887Z,17.80
2022-10-03T05:45:26.065Z,17.83
2022-10-03T05:48:20.226Z,17.83
2022-10-03T05:51:27.302Z,17.82
2022-10-03T05:54:15.036Z,17.82
2022-10-03T05:57:36.455Z,17.81
2022-10-03T06:00:11.317Z,17.79
2022-10-03T06:03:15.075Z,17.72
2022-10-03T06:06:03.357Z,17.58
2022-10-03T06:08:53.736Z,17.66
2022-10-03T06:11:47.870Z,17.74
2022-10-03T06:14:35.126Z,17.70
2022-10-03T06:17:20.938Z,17.74
2022-10-03T06:19:55.146Z,17.81
2022-10-03T06:22:49.665Z,17.81
2022-10-03T06:25:41.749Z,17.95
2022-10-03T06:28:28.898Z,17.98
2022-10-03T06:31:28.222Z,17.97
2022-10-03T06:34:35.313Z,18.05
2022-10-03T06:37:35.480Z,18.12
2022-10-03T06:40:39.493Z,18.18
2022-10-03T06:43:20.883Z,18.20
2022-10-03T06:46:05.559Z,18.30
2022-10-03T06:49:08.321Z,18.40
2022-10-03T06:51:53.472Z,18.43
2022-10-03T06:54:57.605Z,18.52
2022-10-03T06:57:29.827Z,18.59
2022-10-03T07:00:22.271Z,18.70
2022-10-03T07:02:51.383Z,18.81
2022-10-03T07:06:06.791Z,18.90
2022-10-03T07:08:51.915Z,18.96
2022-10-03T07:11:54.364Z,19.01
2022-10-03T07:14:35.896Z,19.14
2022-10-03T07:17:24.925Z,19.28
2022-10-03T07:20:15.951Z,19.31
2022-10-03T07:23:01.168Z,19.34
2022-10-03T07:25:35.202Z,19.49
2022-10-03T07:28:38.050Z,19.51
2022-10-03T07:31:10.643Z,19.63
2022-10-03T07:34:04.858Z,19.77
2022-10-03T07:36:43.628Z,19.85
2022-10-03T07:39:37.685Z,19.94
2022-10-03T07:42:16.386Z,20.03
2022-10-03T07:45:06.547Z,20.12
2022-10-03T07:47:51.634Z,20.17
2022-10-03T07:50:39.009Z,20.24
2022-10-03T07:53:23.842Z,20.19
2022-10-03T07:56:09.307Z,20.19
2022-10-03T07:58:54.122Z,20.30
2022-10-03T08:01:38.421Z,19.40
2022-10-03T08:05:01.008Z,19.20
2022-10-03T08:07:36.218Z,19.20
2022-10-03T08:10:17.514Z,18.56
2022-10-03T08:13:20.374Z,18.65
2022-10-03T08:16:26.778Z,19.05
2022-10-03T08:19:33.079Z,18.86
2022-10-03T08:22:13.389Z,19.08
2022-10-03T08:25:06.122Z,18.71
2022-10-03T08:27:32.538Z,18.30
2022-10-03T08:29:59.163Z,18.67
2022-10-03T08:32:41.857Z,19.05
2022-10-03T08:35:34.649Z,18.90
2022-10-03T08:38:27.947Z,18.63
2022-10-03T08:41:06.629Z,18.73
2022-10-03T08:44:10.612Z,18.74
2022-10-03T08:46:58.760Z,18.94
2022-10-03T08:50:04.396Z,18.50
2022-10-03T08:53:08.799Z,18.74
2022-10-03T08:55:51.632Z,18.65
2022-10-03T08:58:25.578Z,18.23
2022-10-03T09:01:10.828Z,17.90
2022-10-03T09:03:56.250Z,18.15
2022-10-03T09:07:05.191Z,18.79
2022-10-03T09:09:33.141Z,19.02
2022-10-03T09:12:39.327Z,19.23
2022-10-03T09:15:29.448Z,19.85
2022-10-03T09:18:17.700Z,20.04
2022-10-03T09:21:02.782Z,20.30
2022-10-03T09:23:29.165Z,20.04
2022-10-03T09:26:40.015Z,19.95
2022-10-03T09:29:21.724Z,19.59
2022-10-03T09:31:57.324Z,19.71
2022-10-03T09:35:08.480Z,19.02
2022-10-03T09:37:59.732Z,18.47
2022-10-03T09:41:03.268Z,18.05
2022-10-03T09:43:53.892Z,18.35
2022-10-03T09:46:53.193Z,18.74
2022-10-03T09:49:38.416Z,18.73
2022-10-03T09:52:42.380Z,18.89
2022-10-03T09:55:11.730Z,19.17
2022-10-03T09:57:53.389Z,19.55
2022-10-03T10:01:03.995Z,19.83
2022-10-03T10:03:45.725Z,19.90
2022-10-03T10:06:29.018Z,19.78
2022-10-03T10:09:20.257Z,19.75
2022-10-03T10:12:44.280Z,19.47
2022-10-03T10:15:47.094Z,18.98
2022-10-03T10:19:00.768Z,18.83
2022-10-03T10:21:55.234Z,18.85
2022-10-03T10:24:55.985Z,18.75
2022-10-03T10:27:58.909Z,18.97
2022-10-03T10:31:02.347Z,18.43
2022-10-03T10:34:06.580Z,19.00
2022-10-03T10:36:57.467Z,18.95
2022-10-03T10:39:29.739Z,19.28
2022-10-03T10:42:30.241Z,19.77
2022-10-03T10:45:34.236Z,19.47
2022-10-03T10:48:18.996Z,19.52
2022-10-03T10:51:22.692Z,20.18
2022-10-03T10:54:07.160Z,20.35
2022-10-03T10:57:11.215Z,20.90
2022-10-03T11:00:18.644Z,20.49
2022-10-03T11:03:12.927Z,20.22
2022-10-03T11:06:02.592Z,20.54
2022-10-03T11:08:47.582Z,20.81
2022-10-03T11:12:07.943Z,20.82
2022-10-03T11:14:59.230Z,21.18
2022-10-03T11:17:31.583Z,21.36
2022-10-03T11:20:16.837Z,20.89
2022-10-03T11:23:21.070Z,21.55
2022-10-03T11:26:15.181Z,21.52
2022-10-03T11:29:00.448Z,21.90
2022-10-03T11:31:55.926Z,22.19
2022-10-03T11:34:59.922Z,21.55
2022-10-03T11:37:29.137Z,20.97
2022-10-03T11:40:10.871Z,20.80
2022-10-03T11:42:52.543Z,21.00
2022-10-03T11:45:40.034Z,21.11
2022-10-03T11:48:34.718Z,20.71
2022-10-03T11:51:12.668Z,20.32
2022-10-03T11:54:19.195Z,20.16
2022-10-03T11:56:50.794Z,19.65
2022-10-03T11:59:26.789Z,20.33
2022-10-03T12:02:16.584Z,20.47
2022-10-03T12:04:56.425Z,20.00
2022-10-03T12:07:40.364Z,19.31
2022-10-03T12:10:36.959Z,19.44
2022-10-03T12:13:10.219Z,19.89
2022-10-03T12:15:51.670Z,20.27
2022-10-03T12:18:42.490Z,20.57
2022-10-03T12:21:33.706Z,20.97
2022-10-03T12:24:23.627Z,21.25
2022-10-03T12:27:07.026Z,21.44
2022-10-03T12:29:39.701Z,21.47
2022-10-03T12:32:34.090Z,20.79
2022-10-03T12:35:16.622Z,21.33
2022-10-03T12:38:19.931Z,21.22
2022-10-03T12:41:02.429Z,21.17
2022-10-03T12:43:35.081Z,20.05
2022-10-03T12:46:13.842Z,19.62
2022-10-03T12:48:59.571Z,20.12
2022-10-03T12:51:47.337Z,20.35
2022-10-03T12:54:30.996Z,20.20
2022-10-03T12:57:30.924Z,20.22
2022-10-03T13:00:27.120Z,20.09
2022-10-03T13:03:14.751Z,20.11
2022-10-03T13:06:19.039Z,20.35
2022-10-03T13:09:00.767Z,20.43
2022-10-03T13:11:50.328Z,20.72
2022-10-03T13:15:02.330Z,20.52
2022-10-03T13:18:06.271Z,20.79
2022-10-03T13:20:39.767Z,20.94
2022-10-03T13:23:24.811Z,20.92
2022-10-03T13:26:18.642Z,21.70
2022-10-03T13:29:05.358Z,21.80
2022-10-03T13:31:53.462Z,22.05
2022-10-03T13:34:28.216Z,22.45
2022-10-03T13:37:11.484Z,22.58
2022-10-03T13:40:04.414Z,22.85
2022-10-03T13:42:47.061Z,23.34
2022-10-03T13:45:23.180Z,23.41
2022-10-03T13:48:07.208Z,23.15
2022-10-03T13:50:51.810Z,23.39
2022-10-03T13:53:49.200Z,23.66
2022-10-03T13:56:42.824Z,23.77
2022-10-03T13:59:59.907Z,23.55
2022-10-03T14:02:45.002Z,23.67
2022-10-03T14:05:36.493Z,24.01
2022-10-03T14:08:17.392Z,23.48
2022-10-03T14:11:20.867Z,22.51
2022-10-03T14:14:24.777Z,22.23
2022-10-03T14:17:28.138Z,23.17
2022-10-03T14:20:29.848Z,23.46
2022-10-03T14:23:18.735Z,23.76
2022-10-03T14:26:18.447Z,23.83
2022-10-03T14:28:59.776Z,24.26
2022-10-03T14:31:47.048Z,24.48
2022-10-03T14:34:37.977Z,24.21
2022-10-03T14:37:40.528Z,23.85
2022-10-03T14:40:19.633Z,24.18
2022-10-03T14:43:30.193Z,24.26
2022-10-03T14:46:00.312Z,23.29
2022-10-03T14:48:29.038Z,23.23
2022-10-03T14:51:08.717Z,23.13
2022-10-03T14:53:36.640Z,23.19
2022-10-03T14:56:14.056Z,23.15
2022-10-03T14:58:51.446Z,23.42
2022-10-03T15:01:28.164Z,23.29
2022-10-03T15:04:08.188Z,23.44
2022-10-03T15:06:34.603Z,21.85
2022-10-03T15:09:16.739Z,22.08
2022-10-03T15:11:50.455Z,22.36
2022-10-03T15:14:17.293Z,22.73
2022-10-03T15:16:53.774Z,22.14
2022-10-03T15:19:29.992Z,22.25
2022-10-03T15:22:11.104Z,22.21
2022-10-03T15:24:41.739Z,21.87
2022-10-03T15:27:21.952Z,21.45
2022-10-03T15:29:55.980Z,21.64
2022-10-03T15:32:38.024Z,21.52
2022-10-03T15:35:06.826Z,21.83
2022-10-03T15:37:45.409Z,21.14
2022-10-03T15:40:48.266Z,20.73
2022-10-03T15:43:17.346Z,20.31
2022-10-03T15:45:44.391Z,20.08
2022-10-03T15:48:19.117Z,20.22
2022-10-03T15:50:52.510Z,20.36
2022-10-03T15:53:36.484Z,20.08
2022-10-03T15:56:28.604Z,19.88
2022-10-03T15:59:05.197Z,19.58
2022-10-03T16:01:40.620Z,19.74
2022-10-03T16:04:32.715Z,19.74
2022-10-03T16:07:07.859Z,19.59
2022-10-03T16:09:55.549Z,19.16
2022-10-03T16:12:43.329Z,19.10
2022-10-03T16:15:23.581Z,18.99
2022-10-03T16:18:31.573Z,18.97
2022-10-03T16:21:01.748Z,18.94
2022-10-03T16:23:34.203Z,19.04
2022-10-03T16:26:07.059Z,19.34
2022-10-03T16:28:36.260Z,19.28
2022-10-03T16:31:11.115Z,19.02
2022-10-03T16:33:47.105Z,19.26
2022-10-03T16:36:19.182Z,18.92
2022-10-03T16:39:03.687Z,18.71
2022-10-03T16:41:34.876Z,18.73
2022-10-03T16:44:04.460Z,18.58
2022-10-03T16:46:35.211Z,18.39
2022-10-03T16:49:11.246Z,18.56
2022-10-03T16:51:54.422Z,18.27
2022-10-03T16:54:22.979Z,18.09
2022-10-03T16:56:59.908Z,17.91
2022-10-03T16:59:30.427Z,17.87
2022-10-03T17:02:14.021Z,17.67
2022-10-03T17:04:48.137Z,17.97
2022-10-03T17:07:19.355Z,17.93
2022-10-03T17:09:50.088Z,18.13
2022-10-03T17:12:25.388Z,18.22
2022-10-03T17:14:57.042Z,18.14
2022-10-03T17:17:50.367Z,18.25
2022-10-03T17:20:27.493Z,18.34
2022-10-03T17:23:08.565Z,18.66
2022-10-03T17:25:57.066Z,18.64
2022-10-03T17:28:56.112Z,18.35
2022-10-03T17:31:32.340Z,17.96
2022-10-03T17:34:11.504Z,18.19
2022-10-03T17:37:29.192Z,18.01
2022-10-03T17:40:19.671Z,18.39
2022-10-03T17:42:56.039Z,18.38
2022-10-03T17:45:43.388Z,18.49
2022-10-03T17:48:16.456Z,18.56
2022-10-03T17:51:13.953Z,18.34
2022-10-03T17:53:55.459Z,18.41
2022-10-03T17:56:27.524Z,18.06
2022-10-03T17:59:11.220Z,17.75
2022-10-03T18:01:51.384Z,17.79
2022-10-03T18:04:31.977Z,17.62
2022-10-03T18:07:08.853Z,17.74
2022-10-03T18:09:49.166Z,17.70
2022-10-03T18:12:39.853Z,17.91
2022-10-03T18:15:29.855Z,17.97
2022-10-03T18:18:10.393Z,17.96
2022-10-03T18:20:59.311Z,18.16
2022-10-03T18:23:55.797Z,17.99
2022-10-03T18:26:34.951Z,17.67
2022-10-03T18:29:41.603Z,17.61
2022-10-03T18:32:11.166Z,17.58
2022-10-03T18:35:00.044Z,17.33
2022-10-03T18:37:26.486Z,17.17
2022-10-03T18:39:56.401Z,16.88
2022-10-03T18:42:28.586Z,17.02
2022-10-03T18:44:59.789Z,17.02
2022-10-03T18:47:53.114Z,17.28
2022-10-03T18:50:38.045Z,17.37
2022-10-03T18:53:11.813Z,17.06
2022-10-03T18:55:48.063Z,16.95
2022-10-03T18:58:27.896Z,17.14
2022-10-03T19:01:07.893Z,17.30
2022-10-03T19:03:37.710Z,16.91
2022-10-03T19:06:21.026Z,17.33
2022-10-03T19:08:59.014Z,17.34
2022-10-03T19:11:30.948Z,17.52
2022-10-03T19:14:18.011Z,17.24
2022-10-03T19:17:12.816Z,17.36
2022-10-03T19:20:00.153Z,17.08
2022-10-03T19:22:39.677Z,17.29
2022-10-03T19:25:20.818Z,17.19
2022-10-03T19:28:01.646Z,16.97
2022-10-03T19:30:31.772Z,17.04
2022-10-03T19:33:05.973Z,17.07
2022-10-03T19:35:39.753Z,17.16
2022-10-03T19:38:13.048Z,17.44
2022-10-03T19:40:58.478Z,17.16
2022-10-03T19:43:34.352Z,17.44
2022-10-03T19:46:36.286Z,17.51
2022-10-03T19:49:17.911Z,17.22
2022-10-03T19:51:44.596Z,17.65
2022-10-03T19:54:26.881Z,17.83
2022-10-03T19:56:55.055Z,18.11
2022-10-03T19:59:37.924Z,18.44
2022-10-03T20:02:06.041Z,18.48
2022-10-03T20:04:36.825Z,18.76
2022-10-03T20:07:17.291Z,18.91
2022-10-03T20:10:01.557Z,19.13
2022-10-03T20:12:31.141Z,19.17
2022-10-03T20:15:03.133Z,19.31
2022-10-03T20:17:30.477Z,19.42
2022-10-03T20:20:04.689Z,19.35
2022-10-03T20:22:35.718Z,19.23
2022-10-03T20:25:05.778Z,19.37
2022-10-03T20:27:42.906Z,19.31
2022-10-03T20:30:45.312Z,19.25
2022-10-03T20:33:21.661Z,19.17
2022-10-03T20:35:58.124Z,18.83
2022-10-03T20:39:09.545Z,18.22
2022-10-03T20:41:41.759Z,18.40
2022-10-03T20:44:38.932Z,18.45
2022-10-03T20:47:23.584Z,18.23
2022-10-03T20:50:00.916Z,18.19
2022-10-03T20:52:27.850Z,18.42
2022-10-03T20:55:00.602Z,18.64
2022-10-03T20:57:39.948Z,18.70
2022-10-03T21:00:15.590Z,18.58
2022-10-03T21:02:52.665Z,18.69
2022-10-03T21:05:34.782Z,18.97
2022-10-03T21:08:10.936Z,18.97
2022-10-03T21:10:43.925Z,18.97
2022-10-03T21:13:27.188Z,18.78
2022-10-03T21:15:56.885Z,19.05
2022-10-03T21:18:27.441Z,19.12
2022-10-03T21:21:21.963Z,18.93
2022-10-03T21:23:56.503Z,19.15
2022-10-03T21:26:29.375Z,19.14
2022-10-03T21:29:15.625Z,19.19
2022-10-03T21:32:06.224Z,19.25
2022-10-03T21:35:07.952Z,19.18
2022-10-03T21:37:43.259Z,19.35
2022-10-03T21:40:24.522Z,19.16
2022-10-03T21:42:53.649Z,19.31
2022-10-03T21:45:26.239Z,19.34
2022-10-03T21:48:21.958Z,19.30
2022-10-03T21:51:02.563Z,19.42
2022-10-03T21:53:56.999Z,19.48
2022-10-03T21:56:43.266Z,19.34
2022-10-03T21:59:28.276Z,19.49
2022-10-03T22:02:08.414Z,19.51
2022-10-03T22:04:50.168Z,19.40
2022-10-03T22:07:26.739Z,19.53
2022-10-03T22:09:56.229Z,19.53
2022-10-03T22:12:28.270Z,19.55
2022-10-03T22:15:08.705Z,19.44
2022-10-03T22:17:45.388Z,19.39
2022-10-03T22:20:24.870Z,19.36
2022-10-03T22:23:17.232Z,19.48
2022-10-03T22:25:58.861Z,19.48
2022-10-03T22:28:35.767Z,19.48
2022-10-03T22:31:08.442Z,19.45
2022-10-03T22:33:45.706Z,19.40
2022-10-03T22:36:12.834Z,19.38
2022-10-03T22:38:40.555Z,19.13
2022-10-03T22:41:13.767Z,19.27
2022-10-03T22:43:43.063Z,19.26
2022-10-03T22:46:18.788Z,19.28
2022-10-03T22:48:52.456Z,19.31
2022-10-03T22:51:21.906Z,19.32
2022-10-03T22:53:56.697Z,19.33
2022-10-03T22:56:46.838Z,19.31
2022-10-03T22:59:26.817Z,19.34
2022-10-03T23:01:56.952Z,19.40
2022-10-03T23:04:43.326Z,19.42
2022-10-03T23:07:43.720Z,19.43
2022-10-03T23:10:38.015Z,19.42
2022-10-03T23:13:11.965Z,19.44
2022-10-03T23:15:43.932Z,19.44
2022-10-03T23:18:39.370Z,19.52
2022-10-03T23:21:11.789Z,19.51
2022-10-03T23:23:56.198Z,19.53
2022-10-03T23:27:03.948Z,19.50
2022-10-03T23:29:30.430Z,19.56
2022-10-03T23:32:02.577Z,19.56
2022-10-03T23:34:34.751Z,19.51
2022-10-03T23:37:14.656Z,19.52
2022-10-03T23:40:00.963Z,19.47
2022-10-03T23:42:32.880Z,19.49
2022-10-03T23:45:09.596Z,19.49
2022-10-03T23:47:51.355Z,19.28
2022-10-03T23:50:35.939Z,19.29
2022-10-03T23:53:03.800Z,19.28
2022-10-03T23:55:35.921Z,19.30
2022-10-03T23:58:15.628Z,19.39
